createdAt,value
2018-09-14T00:00:28.361Z,10.35
2018-09-14T00:01:01.884Z,11.53
2018-09-14T00:01:35.388Z,10.70
2018-09-14T00:02:08.889Z,11.93
2018-09-14T00:02:42.436Z,12.90
2018-09-14T00:03:15.960Z,11.65
2018-09-14T00:03:49.514Z,14.23
2018-09-14T00:04:23.090Z,11.30
2018-09-14T00:04:56.653Z,10.28
2018-09-14T00:05:30.425Z,10.55
2018-09-14T00:06:03.982Z,10.43
2018-09-14T00:06:37.508Z,12.40
2018-09-14T00:07:11.032Z,10.48
2018-09-14T00:07:44.530Z,10.80
2018-09-14T00:08:18.064Z,10.30
2018-09-14T00:08:51.605Z,11.45
2018-09-14T00:09:25.111Z,10.70
2018-09-14T00:09:58.715Z,11.18
2018-09-14T00:10:32.286Z,11.05
2018-09-14T00:11:05.990Z,13.22
2018-09-14T00:11:39.556Z,10.60
2018-09-14T00:12:13.100Z,10.82
2018-09-14T00:12:46.625Z,12.23
2018-09-14T00:13:20.198Z,12.20
2018-09-14T00:13:54.090Z,11.03
2018-09-14T00:14:27.671Z,11.28
2018-09-14T00:15:01.232Z,12.73
2018-09-14T00:15:34.736Z,10.40
2018-09-14T00:16:08.262Z,13.22
2018-09-14T00:16:41.866Z,10.75
2018-09-14T00:17:15.478Z,10.48
2018-09-14T00:17:48.986Z,12.05
2018-09-14T00:18:22.679Z,11.50
2018-09-14T00:18:56.182Z,10.45
2018-09-14T00:19:29.718Z,11.43
2018-09-14T00:20:03.345Z,11.00
2018-09-14T00:20:36.894Z,10.63
2018-09-14T00:21:10.478Z,13.65
2018-09-14T00:21:44.004Z,10.93
2018-09-14T00:22:17.553Z,12.23
2018-09-14T00:22:51.253Z,12.25
2018-09-14T00:23:24.788Z,11.65
2018-09-14T00:23:58.319Z,11.63
2018-09-14T00:24:31.894Z,11.73
2018-09-14T00:25:05.468Z,11.08
2018-09-14T00:25:39.010Z,11.25
2018-09-14T00:26:12.556Z,11.40
2018-09-14T00:26:46.054Z,11.15
2018-09-14T00:27:19.557Z,13.08
2018-09-14T00:27:53.098Z,11.03
2018-09-14T00:28:26.632Z,13.95
2018-09-14T00:29:00.159Z,13.10
2018-09-14T00:29:33.750Z,10.70
2018-09-14T00:30:07.322Z,12.82
2018-09-14T00:30:40.882Z,11.20
2018-09-14T00:31:14.386Z,11.68
2018-09-14T00:31:47.914Z,11.93
2018-09-14T00:32:21.498Z,11.38
2018-09-14T00:32:55.063Z,10.70
2018-09-14T00:33:28.581Z,11.68
2018-09-14T00:34:02.146Z,10.98
2018-09-14T00:34:35.710Z,12.65
2018-09-14T00:35:09.226Z,14.28
2018-09-14T00:35:42.957Z,11.88
2018-09-14T00:36:16.492Z,12.20
2018-09-14T00:36:50.028Z,12.18
2018-09-14T00:37:23.582Z,14.40
2018-09-14T00:37:57.101Z,11.28
2018-09-14T00:38:30.608Z,13.03
2018-09-14T00:39:07.349Z,11.38
2018-09-14T00:39:40.894Z,11.63
2018-09-14T00:40:14.426Z,11.88
2018-09-14T00:40:47.960Z,12.63
2018-09-14T00:41:21.508Z,11.45
2018-09-14T00:41:55.028Z,12.85
2018-09-14T00:42:28.616Z,13.40
2018-09-14T00:43:02.182Z,11.12
2018-09-14T00:43:35.674Z,12.33
2018-09-14T00:44:09.226Z,11.60
2018-09-14T00:44:42.745Z,12.43
2018-09-14T00:45:16.301Z,11.95
2018-09-14T00:45:50.412Z,12.47
2018-09-14T00:46:23.948Z,12.47
2018-09-14T00:46:57.455Z,11.85
2018-09-14T00:47:30.972Z,13.15
2018-09-14T00:48:04.653Z,11.83
2018-09-14T00:48:38.205Z,11.40
2018-09-14T00:49:11.709Z,11.83
2018-09-14T00:49:45.213Z,12.10
2018-09-14T00:50:18.768Z,12.25
2018-09-14T00:50:52.340Z,11.08
2018-09-14T00:51:25.873Z,11.75
2018-09-14T00:51:59.379Z,13.70
2018-09-14T00:52:32.907Z,12.68
2018-09-14T00:53:06.463Z,11.70
2018-09-14T00:53:39.982Z,12.28
2018-09-14T00:54:13.501Z,13.30
2018-09-14T00:54:47.028Z,12.58
2018-09-14T00:55:20.582Z,14.60
2018-09-14T00:55:54.156Z,15.10
2018-09-14T00:56:27.677Z,12.60
2018-09-14T00:57:01.217Z,15.43
2018-09-14T00:57:34.768Z,13.20
2018-09-14T00:58:08.289Z,12.80
2018-09-14T00:58:41.808Z,14.05
2018-09-14T00:59:15.365Z,14.05
2018-09-14T00:59:48.925Z,12.68
2018-09-14T01:00:22.426Z,15.00
2018-09-14T01:00:56.085Z,16.00
2018-09-14T01:01:29.661Z,13.15
2018-09-14T01:02:03.379Z,15.85
2018-09-14T01:02:36.919Z,13.10
2018-09-14T01:03:10.526Z,15.20
2018-09-14T01:03:44.074Z,14.38
2018-09-14T01:04:17.629Z,14.07
2018-09-14T01:04:51.151Z,15.98
2018-09-14T01:05:24.686Z,12.88
2018-09-14T01:05:58.221Z,12.85
2018-09-14T01:06:31.763Z,12.98
2018-09-14T01:07:05.346Z,14.87
2018-09-14T01:07:38.877Z,15.15
2018-09-14T01:08:12.409Z,15.00
2018-09-14T01:08:45.907Z,13.32
2018-09-14T01:09:25.039Z,14.63
2018-09-14T01:09:58.581Z,15.00
2018-09-14T01:10:32.187Z,14.05
2018-09-14T01:11:05.864Z,12.50
2018-09-14T01:11:39.655Z,12.98
2018-09-14T01:12:13.191Z,13.88
2018-09-14T01:12:46.731Z,14.18
2018-09-14T01:13:20.251Z,14.65
2018-09-14T01:13:53.765Z,14.15
2018-09-14T01:14:27.981Z,14.30
2018-09-14T01:15:01.527Z,13.95
2018-09-14T01:15:35.149Z,11.85
2018-09-14T01:16:08.659Z,11.55
2018-09-14T01:16:42.493Z,14.38
2018-09-14T01:17:16.144Z,11.57
2018-09-14T01:17:49.583Z,12.23
2018-09-14T01:18:23.131Z,11.97
2018-09-14T01:18:56.684Z,11.53
2018-09-14T01:19:30.190Z,11.78
2018-09-14T01:20:04.123Z,11.88
2018-09-14T01:20:37.610Z,13.40
2018-09-14T01:21:11.119Z,13.78
2018-09-14T01:21:44.650Z,11.97
2018-09-14T01:22:18.168Z,11.30
2018-09-14T01:22:51.677Z,13.10
2018-09-14T01:23:25.237Z,11.73
2018-09-14T01:23:58.779Z,12.30
2018-09-14T01:24:32.316Z,15.05
2018-09-14T01:25:05.843Z,13.53
2018-09-14T01:25:39.377Z,13.15
2018-09-14T01:26:12.913Z,11.55
2018-09-14T01:26:46.557Z,12.03
2018-09-14T01:27:20.093Z,12.43
2018-09-14T01:27:53.646Z,14.00
2018-09-14T01:28:27.187Z,12.33
2018-09-14T01:29:00.704Z,12.07
2018-09-14T01:29:34.253Z,11.85
2018-09-14T01:30:07.833Z,11.75
2018-09-14T01:30:41.361Z,13.65
2018-09-14T01:31:14.898Z,11.63
2018-09-14T01:31:48.496Z,12.35
2018-09-14T01:32:21.973Z,12.55
2018-09-14T01:32:55.619Z,13.75
2018-09-14T01:33:29.142Z,13.32
2018-09-14T01:34:02.664Z,14.65
2018-09-14T01:34:36.166Z,12.78
2018-09-14T01:35:15.505Z,14.45
2018-09-14T01:35:54.699Z,14.75
2018-09-14T01:36:28.210Z,15.78
2018-09-14T01:37:01.724Z,13.38
2018-09-14T01:37:35.288Z,15.03
2018-09-14T01:38:08.839Z,13.38
2018-09-14T01:38:42.411Z,12.63
2018-09-14T01:39:15.917Z,12.88
2018-09-14T01:39:49.435Z,12.35
2018-09-14T01:40:23.017Z,13.30
2018-09-14T01:40:56.533Z,11.95
2018-09-14T01:41:30.029Z,13.15
2018-09-14T01:42:03.549Z,12.28
2018-09-14T01:42:37.097Z,11.75
2018-09-14T01:43:10.599Z,11.55
2018-09-14T01:43:44.126Z,11.25
2018-09-14T01:44:17.725Z,13.58
2018-09-14T01:44:51.258Z,12.18
2018-09-14T01:45:24.801Z,12.20
2018-09-14T01:45:58.331Z,14.95
2018-09-14T01:46:31.851Z,14.23
2018-09-14T01:47:05.584Z,11.97
2018-09-14T01:47:39.105Z,11.45
2018-09-14T01:48:12.707Z,12.30
2018-09-14T01:48:46.241Z,15.05
2018-09-14T01:49:19.789Z,12.43
2018-09-14T01:49:53.285Z,11.73
2018-09-14T01:50:26.801Z,12.33
2018-09-14T01:51:00.364Z,12.73
2018-09-14T01:51:33.949Z,13.48
2018-09-14T01:52:07.518Z,12.20
2018-09-14T01:52:41.072Z,11.35
2018-09-14T01:53:14.901Z,15.53
2018-09-14T01:53:48.426Z,14.15
2018-09-14T01:54:21.954Z,14.68
2018-09-14T01:54:55.495Z,11.85
2018-09-14T01:55:29.023Z,13.62
2018-09-14T01:56:02.531Z,12.07
2018-09-14T01:56:36.115Z,12.33
2018-09-14T01:57:09.623Z,11.45
2018-09-14T01:57:43.130Z,17.25
2018-09-14T01:58:16.646Z,13.58
2018-09-14T01:58:50.188Z,10.88
2018-09-14T01:59:23.743Z,12.10
2018-09-14T01:59:57.293Z,13.38
2018-09-14T02:00:30.839Z,14.35
2018-09-14T02:01:04.375Z,14.07
2018-09-14T02:01:37.893Z,12.25
2018-09-14T02:02:11.439Z,12.98
2018-09-14T02:02:44.973Z,12.53
2018-09-14T02:03:18.763Z,10.75
2018-09-14T02:03:52.326Z,10.50
2018-09-14T02:04:25.840Z,10.88
2018-09-14T02:04:59.405Z,13.30
2018-09-14T02:05:32.963Z,11.08
2018-09-14T02:06:06.495Z,13.13
2018-09-14T02:06:40.146Z,11.40
2018-09-14T02:07:13.656Z,11.08
2018-09-14T02:07:47.205Z,10.72
2018-09-14T02:08:20.777Z,9.80
2018-09-14T02:08:54.745Z,10.03
2018-09-14T02:09:28.264Z,11.90
2018-09-14T02:10:01.789Z,11.18
2018-09-14T02:10:35.328Z,10.48
2018-09-14T02:11:08.855Z,10.63
2018-09-14T02:11:42.403Z,14.18
2018-09-14T02:12:15.929Z,10.80
2018-09-14T02:12:50.250Z,10.00
2018-09-14T02:13:23.737Z,11.90
2018-09-14T02:13:57.240Z,10.78
2018-09-14T02:14:30.733Z,9.60
2018-09-14T02:15:04.555Z,10.43
2018-09-14T02:15:38.123Z,11.90
2018-09-14T02:16:11.677Z,12.50
2018-09-14T02:16:45.181Z,9.63
2018-09-14T02:17:18.701Z,9.38
2018-09-14T02:17:52.193Z,10.05
2018-09-14T02:18:25.739Z,13.72
2018-09-14T02:18:59.295Z,10.93
2018-09-14T02:19:32.815Z,10.08
2018-09-14T02:20:06.359Z,10.78
2018-09-14T02:20:39.900Z,10.43
2018-09-14T02:21:13.436Z,10.90
2018-09-14T02:21:47.033Z,10.48
2018-09-14T02:22:20.568Z,9.50
2018-09-14T02:22:54.047Z,9.13
2018-09-14T02:23:27.589Z,9.30
2018-09-14T02:24:01.105Z,10.25
2018-09-14T02:24:34.789Z,10.18
2018-09-14T02:25:08.616Z,10.10
2018-09-14T02:25:42.207Z,11.05
2018-09-14T02:26:15.724Z,9.20
2018-09-14T02:26:49.251Z,9.73
2018-09-14T02:27:22.797Z,11.40
2018-09-14T02:27:56.384Z,8.58
2018-09-14T02:28:29.895Z,11.10
2018-09-14T02:29:03.447Z,10.07
2018-09-14T02:29:37.067Z,9.60
2018-09-14T02:30:10.716Z,10.05
2018-09-14T02:30:44.236Z,9.43
2018-09-14T02:31:17.733Z,10.53
2018-09-14T02:31:51.269Z,11.45
2018-09-14T02:32:24.800Z,9.48
2018-09-14T02:32:58.323Z,9.60
2018-09-14T02:33:31.842Z,9.98
2018-09-14T02:34:05.398Z,9.68
2018-09-14T02:34:38.927Z,10.40
2018-09-14T02:35:12.490Z,11.45
2018-09-14T02:35:46.028Z,11.08
2018-09-14T02:36:19.535Z,10.10
2018-09-14T02:36:53.084Z,13.48
2018-09-14T02:37:26.680Z,10.75
2018-09-14T02:38:00.219Z,10.43
2018-09-14T02:38:33.728Z,9.88
2018-09-14T02:39:07.944Z,12.35
2018-09-14T02:39:41.514Z,10.15
2018-09-14T02:40:15.040Z,9.75
2018-09-14T02:40:48.618Z,11.03
2018-09-14T02:41:22.478Z,11.43
2018-09-14T02:41:55.984Z,10.50
2018-09-14T02:42:29.706Z,9.70
2018-09-14T02:43:03.247Z,11.90
2018-09-14T02:43:36.749Z,11.28
2018-09-14T02:44:10.278Z,11.53
2018-09-14T02:44:43.774Z,10.75
2018-09-14T02:45:17.284Z,10.25
2018-09-14T02:45:50.833Z,10.23
2018-09-14T02:46:24.368Z,11.15
2018-09-14T02:46:57.937Z,9.88
2018-09-14T02:47:31.483Z,13.13
2018-09-14T02:48:05.059Z,11.08
2018-09-14T02:48:38.667Z,13.48
2018-09-14T02:49:12.152Z,12.40
2018-09-14T02:49:45.653Z,10.00
2018-09-14T02:50:19.208Z,10.00
2018-09-14T02:50:52.753Z,12.53
2018-09-14T02:51:26.289Z,10.00
2018-09-14T02:51:59.809Z,11.28
2018-09-14T02:52:33.336Z,14.87
2018-09-14T02:53:06.882Z,12.63
2018-09-14T02:53:40.429Z,9.95
2018-09-14T02:54:13.972Z,12.43
2018-09-14T02:54:47.554Z,10.43
2018-09-14T02:55:21.118Z,10.50
2018-09-14T02:55:54.692Z,10.18
2018-09-14T02:56:28.212Z,10.70
2018-09-14T02:57:01.738Z,11.75
2018-09-14T02:57:35.288Z,11.57
2018-09-14T02:58:08.865Z,9.93
2018-09-14T02:58:42.380Z,11.20
2018-09-14T02:59:15.927Z,9.55
2018-09-14T02:59:49.476Z,11.78
2018-09-14T03:00:22.994Z,10.53
2018-09-14T03:00:56.524Z,10.05
2018-09-14T03:01:30.051Z,11.48
2018-09-14T03:02:03.604Z,10.68
2018-09-14T03:02:37.130Z,10.25
2018-09-14T03:03:10.637Z,10.63
2018-09-14T03:03:44.141Z,10.08
2018-09-14T03:04:17.670Z,10.23
2018-09-14T03:04:51.212Z,9.43
2018-09-14T03:05:24.736Z,10.20
2018-09-14T03:05:58.262Z,11.05
2018-09-14T03:06:31.830Z,9.38
2018-09-14T03:07:05.374Z,10.40
2018-09-14T03:07:38.900Z,9.80
2018-09-14T03:08:12.439Z,11.45
2018-09-14T03:08:45.943Z,11.43
2018-09-14T03:09:19.473Z,11.15
2018-09-14T03:09:52.992Z,9.43
2018-09-14T03:10:26.506Z,12.28
2018-09-14T03:11:00.057Z,10.35
2018-09-14T03:11:33.562Z,9.45
2018-09-14T03:12:07.092Z,12.60
2018-09-14T03:12:40.643Z,9.98
2018-09-14T03:13:14.156Z,11.55
2018-09-14T03:13:47.692Z,10.38
2018-09-14T03:14:21.214Z,11.28
2018-09-14T03:14:54.794Z,10.28
2018-09-14T03:15:28.348Z,10.35
2018-09-14T03:16:01.862Z,8.95
2018-09-14T03:16:35.406Z,9.18
2018-09-14T03:17:09.013Z,10.72
2018-09-14T03:17:42.549Z,9.33
2018-09-14T03:18:16.061Z,11.08
2018-09-14T03:18:49.548Z,9.23
2018-09-14T03:19:23.324Z,10.63
2018-09-14T03:19:56.856Z,12.65
2018-09-14T03:20:30.384Z,9.43
2018-09-14T03:21:03.962Z,9.38
2018-09-14T03:21:37.516Z,9.23
2018-09-14T03:22:11.124Z,9.55
2018-09-14T03:22:44.663Z,9.68
2018-09-14T03:23:18.216Z,9.88
2018-09-14T03:23:51.738Z,10.78
2018-09-14T03:24:25.276Z,9.18
2018-09-14T03:24:58.830Z,9.55
2018-09-14T03:25:32.360Z,10.70
2018-09-14T03:26:06.080Z,11.00
2018-09-14T03:26:39.616Z,12.35
2018-09-14T03:27:13.196Z,9.10
2018-09-14T03:27:46.706Z,9.90
2018-09-14T03:28:20.184Z,9.78
2018-09-14T03:28:53.742Z,9.68
2018-09-14T03:29:27.286Z,12.15
2018-09-14T03:30:00.823Z,10.75
2018-09-14T03:30:34.333Z,9.60
2018-09-14T03:31:07.901Z,10.75
2018-09-14T03:31:41.481Z,10.63
2018-09-14T03:32:15.063Z,12.50
2018-09-14T03:32:48.562Z,9.23
2018-09-14T03:33:22.101Z,9.48
2018-09-14T03:33:55.612Z,11.53
2018-09-14T03:34:29.150Z,9.80
2018-09-14T03:35:02.702Z,10.70
2018-09-14T03:35:36.212Z,9.75
2018-09-14T03:36:09.766Z,9.50
2018-09-14T03:36:43.332Z,9.85
2018-09-14T03:37:16.865Z,10.05
2018-09-14T03:37:50.413Z,9.55
2018-09-14T03:38:23.916Z,9.73
2018-09-14T03:38:57.447Z,10.85
2018-09-14T03:39:30.983Z,12.55
2018-09-14T03:40:04.584Z,11.30
2018-09-14T03:40:38.081Z,9.75
2018-09-14T03:41:11.651Z,12.28
2018-09-14T03:41:45.184Z,10.15
2018-09-14T03:42:18.728Z,11.35
2018-09-14T03:42:52.248Z,11.45
2018-09-14T03:43:25.734Z,10.13
2018-09-14T03:43:59.261Z,10.82
2018-09-14T03:44:32.834Z,11.45
2018-09-14T04:04:19.762Z,9.08
2018-09-14T04:04:53.277Z,8.28
2018-09-14T04:05:26.747Z,8.60
2018-09-14T04:06:00.304Z,8.13
2018-09-14T04:06:33.840Z,8.18
2018-09-14T04:07:07.445Z,8.38
2018-09-14T04:07:41.086Z,8.60
2018-09-14T04:08:14.603Z,10.08
2018-09-14T04:08:48.242Z,8.38
2018-09-14T04:09:21.735Z,8.60
2018-09-14T04:09:55.261Z,8.35
2018-09-14T04:10:28.773Z,8.10
2018-09-14T04:11:02.270Z,9.43
2018-09-14T04:11:35.767Z,8.30
2018-09-14T04:12:09.267Z,9.35
2018-09-14T04:12:42.741Z,9.98
2018-09-14T04:13:16.289Z,9.50
2018-09-14T04:13:49.849Z,7.45
2018-09-14T04:14:23.347Z,8.38
2018-09-14T04:14:56.871Z,8.30
2018-09-14T04:31:20.989Z,9.48
2018-09-14T04:31:54.558Z,7.70
2018-09-14T04:32:28.066Z,7.87
2018-09-14T04:33:01.564Z,7.97
2018-09-14T04:33:35.078Z,7.58
2018-09-14T04:34:08.560Z,11.15
2018-09-14T04:34:42.065Z,8.10
2018-09-14T04:35:15.605Z,8.13
2018-09-14T04:35:49.131Z,7.65
2018-09-14T04:36:22.670Z,8.05
2018-09-14T04:36:56.150Z,8.18
2018-09-14T04:37:29.642Z,8.88
2018-09-14T04:38:03.162Z,8.23
2018-09-14T04:38:36.655Z,10.32
2018-09-14T04:39:10.578Z,7.83
2018-09-14T04:39:44.130Z,9.00
2018-09-14T04:40:17.636Z,8.28
2018-09-14T04:40:51.129Z,8.43
2018-09-14T04:41:24.641Z,8.78
2018-09-14T04:41:58.131Z,10.00
2018-09-14T04:42:31.639Z,8.25
2018-09-14T04:43:05.190Z,9.40
2018-09-14T04:43:38.706Z,8.28
2018-09-14T04:44:12.215Z,8.17
2018-09-14T04:44:45.709Z,8.58
2018-09-14T04:51:04.736Z,8.70
2018-09-14T04:51:38.264Z,8.85
2018-09-14T04:52:11.745Z,9.23
2018-09-14T04:52:45.268Z,9.08
2018-09-14T04:53:18.789Z,8.45
2018-09-14T04:53:52.322Z,8.83
2018-09-14T04:54:25.917Z,9.75
2018-09-14T04:54:59.443Z,10.28
2018-09-14T04:55:32.987Z,8.83
2018-09-14T04:56:07.834Z,10.13
2018-09-14T04:56:41.364Z,9.95
2018-09-14T04:57:14.913Z,8.75
2018-09-14T04:57:48.396Z,8.20
2018-09-14T04:58:21.955Z,8.68
2018-09-14T04:58:55.559Z,9.67
2018-09-14T04:59:29.090Z,8.85
2018-09-14T05:00:02.642Z,9.53
2018-09-14T05:10:16.068Z,10.25
2018-09-14T05:10:49.582Z,9.53
2018-09-14T05:11:23.050Z,11.20
2018-09-14T05:11:56.586Z,9.75
2018-09-14T05:12:30.164Z,10.05
2018-09-14T05:13:03.729Z,10.28
2018-09-14T05:13:37.244Z,9.70
2018-09-14T05:14:10.835Z,9.55
2018-09-14T05:14:44.286Z,11.15
2018-09-14T05:15:17.824Z,11.15
2018-09-14T05:29:29.889Z,10.68
2018-09-14T05:30:03.592Z,11.10
2018-09-14T05:48:44.818Z,14.07
2018-09-14T05:49:18.370Z,10.20
2018-09-14T05:49:51.892Z,10.93
2018-09-14T05:50:25.409Z,14.70
2018-09-14T05:50:58.923Z,12.85
2018-09-14T05:51:32.430Z,12.68
2018-09-14T05:52:05.949Z,10.80
2018-09-14T05:52:39.469Z,10.82
2018-09-14T05:53:12.979Z,12.05
2018-09-14T05:53:46.521Z,10.18
2018-09-14T05:54:20.098Z,10.93
2018-09-14T05:54:53.529Z,14.50
2018-09-14T05:55:27.077Z,11.57
2018-09-14T05:56:00.585Z,12.73
2018-09-14T05:56:34.116Z,13.85
2018-09-14T05:57:07.617Z,12.85
2018-09-14T05:57:41.132Z,11.30
2018-09-14T05:58:14.647Z,11.28
2018-09-14T05:58:48.153Z,11.08
2018-09-14T05:59:21.835Z,11.20
2018-09-14T05:59:55.392Z,14.78
2018-09-14T06:00:29.484Z,13.40
2018-09-14T06:07:56.772Z,13.60
2018-09-14T06:08:30.281Z,13.08
2018-09-14T06:09:10.390Z,14.20
2018-09-14T06:09:43.931Z,13.53
2018-09-14T06:10:17.486Z,14.07
2018-09-14T06:10:50.979Z,12.15
2018-09-14T06:11:24.511Z,15.68
2018-09-14T06:11:57.993Z,13.15
2018-09-14T06:12:31.493Z,11.78
2018-09-14T06:13:05.239Z,13.05
2018-09-14T06:13:38.877Z,12.33
2018-09-14T06:14:12.447Z,11.48
2018-09-14T06:14:45.970Z,14.47
2018-09-14T06:15:19.477Z,15.85
2018-09-14T06:27:24.812Z,13.22
2018-09-14T06:27:58.348Z,11.68
2018-09-14T06:28:31.853Z,12.43
2018-09-14T06:29:05.887Z,13.90
2018-09-14T06:29:39.505Z,14.38
2018-09-14T06:30:13.067Z,11.97
2018-09-14T06:46:37.028Z,12.23
2018-09-14T06:47:10.562Z,13.83
2018-09-14T06:47:44.108Z,12.73
2018-09-14T06:48:17.625Z,11.30
2018-09-14T06:48:51.120Z,11.45
2018-09-14T06:49:24.666Z,14.80
2018-09-14T06:49:58.165Z,13.05
2018-09-14T06:50:31.687Z,13.43
2018-09-14T06:51:05.466Z,15.50
2018-09-14T06:51:38.969Z,11.48
2018-09-14T06:52:12.481Z,11.85
2018-09-14T06:52:46.016Z,12.50
2018-09-14T06:53:19.601Z,12.63
2018-09-14T06:53:53.097Z,11.70
2018-09-14T06:54:26.635Z,11.60
2018-09-14T06:55:00.154Z,12.70
2018-09-14T06:55:33.695Z,12.23
2018-09-14T06:56:07.232Z,13.58
2018-09-14T06:56:40.737Z,11.33
2018-09-14T06:57:14.276Z,12.28
2018-09-14T06:57:47.780Z,11.95
2018-09-14T06:58:21.290Z,11.33
2018-09-14T06:58:54.923Z,12.88
2018-09-14T06:59:28.423Z,11.90
2018-09-14T07:00:02.114Z,14.10
2018-09-14T07:00:35.528Z,13.35
2018-09-14T07:05:53.463Z,14.60
2018-09-14T07:06:27.039Z,14.45
2018-09-14T07:07:00.548Z,13.70
2018-09-14T07:07:34.065Z,15.18
2018-09-14T07:08:07.815Z,12.43
2018-09-14T07:08:41.321Z,12.43
2018-09-14T07:09:14.835Z,12.70
2018-09-14T07:09:48.427Z,11.75
2018-09-14T07:10:21.966Z,12.23
2018-09-14T07:10:55.505Z,12.78
2018-09-14T07:11:29.024Z,11.93
2018-09-14T07:12:02.549Z,11.18
2018-09-14T07:12:36.052Z,13.05
2018-09-14T07:13:09.558Z,11.68
2018-09-14T07:13:43.059Z,13.00
2018-09-14T07:14:16.607Z,16.80
2018-09-14T07:14:50.877Z,13.18
2018-09-14T07:15:24.400Z,17.45
2018-09-14T07:25:34.832Z,11.68
2018-09-14T07:26:08.745Z,10.85
2018-09-14T07:26:42.264Z,11.75
2018-09-14T07:27:15.794Z,12.28
2018-09-14T07:27:49.344Z,13.18
2018-09-14T07:28:22.828Z,11.20
2018-09-14T07:28:56.379Z,16.23
2018-09-14T07:29:29.915Z,13.40
2018-09-14T07:30:03.858Z,11.38
2018-09-14T07:30:37.369Z,13.22
2018-09-14T07:44:49.097Z,11.45
2018-09-14T07:45:22.666Z,11.25
2018-09-14T07:45:56.168Z,12.33
2018-09-14T08:04:02.908Z,14.25
2018-09-14T08:04:36.456Z,13.43
2018-09-14T08:05:09.994Z,11.30
2018-09-14T08:05:43.573Z,11.85
2018-09-14T08:06:17.110Z,11.70
2018-09-14T08:06:50.638Z,13.48
2018-09-14T08:07:24.188Z,11.53
2018-09-14T08:07:57.700Z,12.85
2018-09-14T08:08:31.405Z,12.90
2018-09-14T08:09:09.778Z,14.33
2018-09-14T08:09:43.274Z,12.82
2018-09-14T08:10:16.804Z,12.10
2018-09-14T08:10:50.320Z,11.90
2018-09-14T08:11:23.834Z,10.85
2018-09-14T08:11:57.487Z,15.13
2018-09-14T08:12:30.868Z,10.85
2018-09-14T08:13:04.674Z,11.15
2018-09-14T08:13:38.135Z,12.03
2018-09-14T08:14:11.665Z,12.07
2018-09-14T08:14:45.186Z,11.12
2018-09-14T08:15:18.768Z,11.15
2018-09-14T08:15:52.288Z,15.38
2018-09-14T08:23:17.599Z,12.55
2018-09-14T08:23:51.096Z,14.73
2018-09-14T08:24:24.629Z,10.82
2018-09-14T08:24:58.154Z,11.45
2018-09-14T08:25:31.680Z,11.05
2018-09-14T08:26:05.235Z,14.73
2018-09-14T08:26:38.806Z,10.80
2018-09-14T08:27:12.326Z,12.15
2018-09-14T08:27:45.816Z,11.75
2018-09-14T08:28:19.330Z,11.57
2018-09-14T08:28:52.841Z,11.12
2018-09-14T08:29:26.372Z,11.10
2018-09-14T08:29:59.878Z,11.22
2018-09-14T08:30:33.371Z,11.73
2018-09-14T08:31:07.099Z,10.15
2018-09-14T08:42:34.065Z,9.73
2018-09-14T08:43:07.556Z,14.40
2018-09-14T08:43:41.043Z,9.33
2018-09-14T08:44:14.536Z,10.28
2018-09-14T08:44:48.197Z,9.68
2018-09-14T08:45:21.747Z,9.93
2018-09-14T08:45:55.271Z,9.48
2018-09-14T09:01:51.792Z,12.45
2018-09-14T09:02:25.331Z,9.75
2018-09-14T09:02:58.861Z,10.10
2018-09-14T09:03:32.389Z,9.95
2018-09-14T09:04:05.967Z,10.65
2018-09-14T09:04:39.480Z,9.65
2018-09-14T09:05:12.968Z,9.00
2018-09-14T09:05:46.508Z,14.47
2018-09-14T09:06:20.122Z,10.50
2018-09-14T09:06:53.657Z,10.53
2018-09-14T09:07:27.189Z,9.75
2018-09-14T09:08:00.775Z,11.88
2018-09-14T09:08:34.358Z,9.30
2018-09-14T09:09:11.051Z,13.45
2018-09-14T09:09:44.507Z,10.72
2018-09-14T09:10:18.093Z,12.30
2018-09-14T09:10:51.630Z,10.72
2018-09-14T09:11:25.428Z,9.60
2018-09-14T09:11:58.907Z,11.73
2018-09-14T09:12:32.445Z,10.78
2018-09-14T09:13:05.982Z,9.20
2018-09-14T09:13:39.509Z,9.48
2018-09-14T09:14:13.033Z,12.15
2018-09-14T09:14:46.596Z,9.18
2018-09-14T09:15:20.167Z,13.55
2018-09-14T09:15:53.681Z,9.20
2018-09-14T09:21:02.977Z,11.48
2018-09-14T09:21:36.527Z,9.70
2018-09-14T09:22:10.109Z,9.23
2018-09-14T09:22:43.622Z,8.98
2018-09-14T09:23:17.173Z,11.12
2018-09-14T09:23:50.650Z,11.65
2018-09-14T09:24:24.157Z,10.20
2018-09-14T09:24:57.712Z,14.28
2018-09-14T09:25:31.254Z,10.93
2018-09-14T09:26:04.826Z,10.28
2018-09-14T09:26:38.340Z,10.03
2018-09-14T09:27:11.857Z,8.95
2018-09-14T09:27:45.404Z,13.13
2018-09-14T09:28:18.928Z,10.85
2018-09-14T09:28:52.440Z,9.85
2018-09-14T09:29:26.015Z,12.58
2018-09-14T09:29:59.446Z,11.15
2018-09-14T09:30:32.935Z,11.68
2018-09-14T09:31:06.820Z,11.03
2018-09-14T09:40:16.350Z,14.10
2018-09-14T09:40:49.830Z,9.75
2018-09-14T09:41:23.361Z,12.13
2018-09-14T09:41:56.868Z,10.98
2018-09-14T09:42:30.437Z,9.50
2018-09-14T09:43:03.981Z,10.05
2018-09-14T09:43:37.662Z,9.40
2018-09-14T09:44:11.254Z,11.57
2018-09-14T09:44:44.783Z,10.38
2018-09-14T09:45:18.285Z,14.15
2018-09-14T09:45:51.783Z,11.45
2018-09-14T09:46:25.331Z,12.25
2018-09-14T09:59:32.273Z,9.60
2018-09-14T10:00:10.503Z,13.48
2018-09-14T10:00:49.671Z,14.90
2018-09-14T10:01:33.785Z,10.77
2018-09-14T10:18:46.101Z,12.07
2018-09-14T10:19:19.692Z,12.28
2018-09-14T10:19:53.375Z,10.38
2018-09-14T10:20:26.961Z,11.97
2018-09-14T10:21:00.501Z,12.47
2018-09-14T10:21:33.997Z,12.85
2018-09-14T10:22:07.593Z,15.20
2018-09-14T10:22:41.111Z,11.65
2018-09-14T10:23:14.601Z,11.25
2018-09-14T10:23:48.152Z,12.55
2018-09-14T10:24:21.697Z,13.53
2018-09-14T10:24:55.193Z,14.05
2018-09-14T10:25:28.714Z,11.15
2018-09-14T10:26:02.433Z,10.98
2018-09-14T10:26:35.919Z,10.38
2018-09-14T10:27:09.509Z,11.55
2018-09-14T10:27:43.049Z,12.55
2018-09-14T10:28:16.548Z,9.30
2018-09-14T10:28:50.094Z,11.30
2018-09-14T10:29:23.589Z,14.45
2018-09-14T10:29:57.097Z,13.22
2018-09-14T10:30:30.579Z,11.65
2018-09-14T10:31:04.173Z,13.68
2018-09-14T10:31:37.677Z,12.60
2018-09-14T10:38:04.397Z,13.13
2018-09-14T10:38:37.949Z,10.38
2018-09-14T10:39:11.939Z,9.48
2018-09-14T10:39:45.454Z,7.90
2018-09-14T10:40:19.021Z,12.28
2018-09-14T10:40:52.617Z,8.75
2018-09-14T10:41:26.083Z,8.50
2018-09-14T10:41:59.641Z,8.20
2018-09-14T10:42:33.137Z,7.85
2018-09-14T10:43:06.703Z,9.80
2018-09-14T10:43:40.208Z,8.30
2018-09-14T10:44:13.701Z,6.87
2018-09-14T10:44:47.199Z,7.12
2018-09-14T10:45:20.787Z,7.62
2018-09-14T10:45:54.270Z,8.80
2018-09-14T10:46:27.784Z,7.72
2018-09-14T10:57:15.867Z,6.17
2018-09-14T10:57:49.386Z,6.87
2018-09-14T10:58:23.151Z,6.10
2018-09-14T10:58:56.674Z,5.60
2018-09-14T10:59:30.188Z,6.28
2018-09-14T11:00:04.149Z,5.80
2018-09-14T11:00:37.725Z,5.55
2018-09-14T11:01:13.964Z,5.97
2018-09-14T11:01:47.482Z,5.85
2018-09-14T11:16:32.210Z,5.83
2018-09-14T11:36:19.081Z,5.80
2018-09-14T11:36:52.589Z,5.95
2018-09-14T11:37:26.167Z,6.83
2018-09-14T11:37:59.685Z,5.80
2018-09-14T11:38:33.368Z,6.95
2018-09-14T11:39:09.370Z,6.40
2018-09-14T11:39:42.880Z,6.33
2018-09-14T11:40:16.392Z,6.10
2018-09-14T11:40:49.888Z,6.00
2018-09-14T11:41:23.401Z,5.92
2018-09-14T11:41:56.918Z,6.10
2018-09-14T11:42:30.921Z,6.65
2018-09-14T11:43:04.437Z,5.80
2018-09-14T11:43:37.960Z,5.80
2018-09-14T11:44:11.461Z,5.87
2018-09-14T11:44:44.960Z,5.87
2018-09-14T11:45:18.501Z,6.12
2018-09-14T11:45:52.087Z,5.83
2018-09-14T11:46:25.596Z,5.97
2018-09-14T11:46:59.094Z,5.90
2018-09-14T11:55:35.376Z,6.70
2018-09-14T11:56:08.952Z,6.00
2018-09-14T11:56:42.454Z,6.03
2018-09-14T11:57:15.928Z,6.00
2018-09-14T11:57:49.430Z,5.65
2018-09-14T11:58:22.972Z,5.50
2018-09-14T11:58:56.449Z,5.75
2018-09-14T11:59:29.947Z,5.85
2018-09-14T12:00:03.624Z,6.05
2018-09-14T12:00:37.174Z,6.03
2018-09-14T12:01:10.688Z,6.05
2018-09-14T12:01:44.220Z,6.10
2018-09-14T12:14:44.250Z,6.10
2018-09-14T12:15:17.754Z,5.97
2018-09-14T12:15:51.303Z,5.58
2018-09-14T12:16:24.813Z,6.70
2018-09-14T12:16:58.316Z,5.53
2018-09-14T12:33:57.303Z,5.55
2018-09-14T12:34:30.842Z,6.95
2018-09-14T12:35:04.365Z,5.87
2018-09-14T12:35:37.940Z,5.58
2018-09-14T12:36:11.391Z,6.15
2018-09-14T12:36:44.883Z,5.83
2018-09-14T12:37:18.380Z,7.40
2018-09-14T12:37:51.893Z,5.83
2018-09-14T12:38:25.431Z,5.85
2018-09-14T12:38:58.990Z,5.60
2018-09-14T12:39:32.501Z,5.90
2018-09-14T12:40:06.190Z,6.17
2018-09-14T12:40:39.668Z,5.90
2018-09-14T12:41:13.177Z,5.60